Portada
METAR-TAF:

METAR-TAF

Aeropuertos :

Aeropuerto de Faro

Faro, Portugal

latitud: 37-01N, longitud: 007-58W, altitud: 7 m

Observación

El informe se hizo hace 20 minutos, a las 12:30 UTC
Viento 9 kt del sur-suroeste
Temperatura 23°C
Humedad 44%
Presión 1015 hPa
Visibilidad 10 km o más
Escasas nubes a una altura de 2000 ft

METAR: LPFR 261230Z 21009KT 9999 FEW020 23/10 Q1015

Hora: 13:50 (12:50 UTC)

Pronóstico

El informe se hizo hace 1 hora y 50 minutos, a las 11:00 UTC
Pronóstico válido del 26 a las 12 UTC al 27 a las 12 UTC
Viento 13 kt del oeste-suroeste
Visibilidad 10 km o más
sin nubes por debajo de 1500 m y sin presencia de cumulonimbus.
Evolucionando progresivamente
del 26 a las 18 UTC al 26 a las 21 UTC
Viento 8 kt del norte-noroeste
Evolucionando progresivamente
del 27 a las 00 UTC al 27 a las 03 UTC
Viento 5 kt con dirección variable

TAF: LPFR 261100Z 2612/2712 24013KT CAVOK BECMG 2618/2621 34008KT BECMG 2700/2703 VRB05KT

Observaciones y pronósticos meteorológicos de más de 4000 aeropuertos (mensajes METAR y TAF).

Los puntos amarillos y rojos representan las estaciones disponibles.

Ponga el ratón en el punto deseado para ver el nombre de la estación.

Haga clic para ver las observaciones y los pronósticos meteorológicos.

Para cambiar el mapa : haga clic en los botones verdes con una cruz de color negro para hacer un zoom, en el botón verde con un guión para alejar o en las flechas verdes para mapas adyacentes.


METAR-TAF: